Time;durP1;ratioP1;P1;durP2;ratioP2;P2;SDS_P1;SDS_P2;PMS_P1;PMS_P2;Temp;Humidity;BMP_temperature;BMP_pressure;BME280_temperature;BME280_humidity;BME280_pressure;Samples;Min_cycle;Max_cycle;Signal;HPM_P1;HPM_P2
2024/01/13 00:04:39;;;;;;;39.83;11.40;;;;;;;;;;10597554;27;20035;-74
2024/01/13 00:09:42;;;;;;;;;;;;;;;;;;10591424;27;20111;-75
2024/01/13 00:14:45;;;;;;;40.33;9.53;;;;;;;;;;10588794;27;19957;-75
2024/01/13 00:19:49;;;;;;;55.03;13.47;;;;;;;;;;10580450;27;20039;-74
2024/01/13 00:24:53;;;;;;;57.30;17.63;;;;;;;;;;10583009;27;20039;-75
2024/01/13 00:29:55;;;;;;;73.87;17.33;;;;;;;;;;10588629;27;20048;-74
2024/01/13 00:34:59;;;;;;;64.47;16.67;;;;;;;;;;10585946;27;20058;-75
2024/01/13 00:40:02;;;;;;;65.47;17.45;;;;;;;;;;10587880;27;20616;-74
2024/01/13 00:45:05;;;;;;;61.23;16.10;;;;;;;;;;10593515;27;20052;-74
2024/01/13 00:50:10;;;;;;;51.20;13.30;;;;;;;;;;10584600;27;20053;-74
2024/01/13 00:55:13;;;;;;;63.83;17.47;;;;;;;;;;10587475;27;20092;-74
2024/01/13 01:00:16;;;;;;;22.30;6.70;;;;;;;;;;10567162;27;21066;-73
2024/01/13 01:05:20;;;;;;;24.80;8.65;;;;;;;;;;10591615;27;20043;-73
2024/01/13 01:10:23;;;;;;;;;;;;;;;;;;10584820;27;20073;-74
2024/01/13 01:15:27;;;;;;;22.53;9.70;;;;;;;;;;10576226;27;20189;-74
2024/01/13 01:20:31;;;;;;;15.43;6.30;;;;;;;;;;10586006;27;20047;-74
2024/01/13 01:25:33;;;;;;;29.02;8.65;;;;;;;;;;10582605;27;20043;-74
2024/01/13 01:30:36;;;;;;;34.00;10.77;;;;;;;;;;10575344;27;20468;-74
2024/01/13 01:35:40;;;;;;;21.27;5.33;;;;;;;;;;10589159;27;20483;-72
2024/01/13 01:40:44;;;;;;;42.42;12.25;;;;;;;;;;10587991;27;20475;-74
2024/01/13 01:45:48;;;;;;;6.95;2.95;;;;;;;;;;10586236;27;20042;-74
2024/01/13 01:50:53;;;;;;;64.73;17.67;;;;;;;;;;10594241;27;20128;-74
2024/01/13 01:55:58;;;;;;;67.53;16.73;;;;;;;;;;10578399;27;20172;-74
2024/01/13 02:01:02;;;;;;;15.63;4.50;;;;;;;;;;10580340;27;20299;-74
2024/01/13 02:06:07;;;;;;;33.40;8.75;;;;;;;;;;10579982;27;20044;-73
2024/01/13 02:11:11;;;;;;;31.07;8.37;;;;;;;;;;10587601;27;20035;-74
2024/01/13 02:16:17;;;;;;;27.77;7.93;;;;;;;;;;10581799;27;20513;-74
2024/01/13 02:21:21;;;;;;;49.03;12.53;;;;;;;;;;10579148;27;20121;-72
2024/01/13 02:26:28;;;;;;;47.75;12.05;;;;;;;;;;10585187;27;20525;-73
2024/01/13 02:31:31;;;;;;;48.53;12.73;;;;;;;;;;10584801;27;20130;-75
2024/01/13 02:36:33;;;;;;;47.73;13.87;;;;;;;;;;10581185;27;20047;-73
2024/01/13 02:41:38;;;;;;;44.47;13.07;;;;;;;;;;10585226;27;20036;-73
2024/01/13 02:46:40;;;;;;;44.28;12.73;;;;;;;;;;10585852;27;20220;-74
2024/01/13 02:51:43;;;;;;;46.57;13.87;;;;;;;;;;10581658;27;20110;-74
2024/01/13 02:56:47;;;;;;;46.53;12.80;;;;;;;;;;10588700;27;20122;-74
2024/01/13 03:01:50;;;;;;;;;;;;;;;;;;10584420;27;20454;-73
2024/01/13 03:06:53;;;;;;;40.17;11.17;;;;;;;;;;10579640;27;19924;-72
2024/01/13 03:11:57;;;;;;;51.80;14.50;;;;;;;;;;10577604;27;20452;-73
2024/01/13 03:17:00;;;;;;;;;;;;;;;;;;10580331;28;20044;-75
2024/01/13 03:22:03;;;;;;;56.30;15.07;;;;;;;;;;10577672;27;19930;-75
2024/01/13 03:27:07;;;;;;;57.13;15.90;;;;;;;;;;10576123;27;20071;-74
2024/01/13 03:32:10;;;;;;;;;;;;;;;;;;10575218;27;20129;-74
2024/01/13 03:37:13;;;;;;;59.50;16.77;;;;;;;;;;10580693;27;19973;-74
2024/01/13 03:42:17;;;;;;;51.33;14.23;;;;;;;;;;10581561;27;20127;-73
2024/01/13 03:47:19;;;;;;;47.78;14.18;;;;;;;;;;10592256;27;20035;-74
2024/01/13 03:52:22;;;;;;;61.33;16.17;;;;;;;;;;10592004;27;20122;-74
2024/01/13 03:57:26;;;;;;;63.03;16.33;;;;;;;;;;10584205;27;20055;-73
2024/01/13 04:02:29;;;;;;;53.42;14.95;;;;;;;;;;10583077;27;20067;-75
2024/01/13 04:07:31;;;;;;;45.93;13.27;;;;;;;;;;10580485;27;20043;-74
2024/01/13 04:12:36;;;;;;;50.23;15.00;;;;;;;;;;10586791;27;20055;-74
2024/01/13 04:17:39;;;;;;;58.80;15.82;;;;;;;;;;10584999;27;20491;-74
2024/01/13 04:22:43;;;;;;;64.50;16.57;;;;;;;;;;10578072;27;20031;-73
2024/01/13 04:27:48;;;;;;;53.67;15.90;;;;;;;;;;10586520;27;20055;-73
2024/01/13 04:32:50;;;;;;;49.37;13.07;;;;;;;;;;10592608;27;20062;-73
2024/01/13 04:37:54;;;;;;;49.43;14.30;;;;;;;;;;10597436;27;20637;-76
2024/01/13 04:42:58;;;;;;;49.43;13.73;;;;;;;;;;10590647;27;20094;-74
2024/01/13 04:48:01;;;;;;;;;;;;;;;;;;10585123;27;20051;-73
2024/01/13 04:53:04;;;;;;;48.10;14.50;;;;;;;;;;10589437;27;19998;-73
2024/01/13 04:58:08;;;;;;;5.80;3.33;;;;;;;;;;10587704;27;20117;-73
2024/01/13 05:03:11;;;;;;;32.40;11.20;;;;;;;;;;10565881;27;20149;-74
2024/01/13 05:08:14;;;;;;;37.77;11.00;;;;;;;;;;10584776;27;20047;-73
2024/01/13 05:13:18;;;;;;;17.73;4.77;;;;;;;;;;10586049;27;20041;-73
2024/01/13 05:18:21;;;;;;;23.13;7.53;;;;;;;;;;10591147;27;20054;-74
2024/01/13 05:23:25;;;;;;;46.03;14.17;;;;;;;;;;10590674;27;20071;-74
2024/01/13 05:28:29;;;;;;;41.43;11.93;;;;;;;;;;10584157;27;20050;-73
2024/01/13 05:33:31;;;;;;;58.85;15.82;;;;;;;;;;10585029;27;20122;-74
2024/01/13 05:38:34;;;;;;;53.43;13.37;;;;;;;;;;10584248;27;20088;-74
2024/01/13 05:43:38;;;;;;;39.00;9.80;;;;;;;;;;10579140;27;20047;-74
2024/01/13 05:48:41;;;;;;;51.65;14.38;;;;;;;;;;10585924;27;20070;-72
2024/01/13 05:53:44;;;;;;;46.87;14.27;;;;;;;;;;10582320;27;20117;-73
2024/01/13 05:58:49;;;;;;;29.47;9.47;;;;;;;;;;10583202;27;20047;-73
2024/01/13 06:03:51;;;;;;;51.42;13.68;;;;;;;;;;10591428;27;20114;-74
2024/01/13 06:08:54;;;;;;;49.50;13.63;;;;;;;;;;10587052;27;20039;-73
2024/01/13 06:13:59;;;;;;;52.80;14.77;;;;;;;;;;10573635;27;20507;-75
2024/01/13 06:19:02;;;;;;;42.37;13.33;;;;;;;;;;10583691;27;21378;-74
2024/01/13 06:24:05;;;;;;;27.33;8.27;;;;;;;;;;10588084;27;20134;-73
2024/01/13 06:29:10;;;;;;;17.50;4.37;;;;;;;;;;10584257;27;20362;-74
2024/01/13 06:34:13;;;;;;;45.93;12.13;;;;;;;;;;10583903;27;20442;-75
2024/01/13 06:39:16;;;;;;;19.10;5.73;;;;;;;;;;10585204;27;20143;-73
2024/01/13 06:44:20;;;;;;;35.23;8.23;;;;;;;;;;10581579;27;20050;-73
2024/01/13 06:49:32;;;;;;;27.47;8.93;;;;;;;;;;10578297;27;20079;-74
2024/01/13 06:54:35;;;;;;;35.35;11.57;;;;;;;;;;10577843;27;20048;-72
2024/01/13 06:59:39;;;;;;;40.47;11.37;;;;;;;;;;10580682;27;20122;-73
2024/01/13 07:04:42;;;;;;;46.33;12.85;;;;;;;;;;10583391;27;20027;-74
2024/01/13 07:09:45;;;;;;;53.22;14.27;;;;;;;;;;10586025;27;20043;-72
2024/01/13 07:14:52;;;;;;;40.43;11.00;;;;;;;;;;10582269;27;20428;-72
2024/01/13 07:19:55;;;;;;;21.17;5.33;;;;;;;;;;10579599;27;20540;-74
2024/01/13 07:24:57;;;;;;;33.70;9.93;;;;;;;;;;10592745;27;20219;-73
2024/01/13 07:30:04;;;;;;;18.53;4.73;;;;;;;;;;10591952;27;20081;-73
2024/01/13 07:35:07;;;;;;;12.23;4.43;;;;;;;;;;10587410;27;20043;-72
2024/01/13 07:40:11;;;;;;;45.13;10.50;;;;;;;;;;10596082;27;20889;-71
2024/01/13 07:45:15;;;;;;;22.67;6.50;;;;;;;;;;10584763;27;20414;-72
2024/01/13 07:50:18;;;;;;;27.23;7.83;;;;;;;;;;10588879;27;20071;-73
2024/01/13 07:55:21;;;;;;;24.23;7.87;;;;;;;;;;10588445;27;20046;-73
2024/01/13 08:00:27;;;;;;;20.83;9.03;;;;;;;;;;10591754;27;20059;-74
2024/01/13 08:05:31;;;;;;;31.30;9.67;;;;;;;;;;10592548;27;20609;-74
2024/01/13 08:10:38;;;;;;;18.57;6.20;;;;;;;;;;10588603;27;20126;-74
2024/01/13 08:15:42;;;;;;;34.87;9.67;;;;;;;;;;10587427;27;20067;-74
2024/01/13 08:20:44;;;;;;;45.10;11.63;;;;;;;;;;10586611;27;20040;-73
2024/01/13 08:25:47;;;;;;;49.33;12.10;;;;;;;;;;10590317;27;20103;-73
2024/01/13 08:30:51;;;;;;;41.17;11.90;;;;;;;;;;10581838;27;20071;-74
2024/01/13 08:35:53;;;;;;;;;;;;;;;;;;10593546;27;20096;-72
2024/01/13 08:40:56;;;;;;;32.07;10.60;;;;;;;;;;10588931;27;19927;-72
2024/01/13 08:46:00;;;;;;;33.73;8.60;;;;;;;;;;10581503;27;20460;-72
2024/01/13 08:51:03;;;;;;;35.08;8.57;;;;;;;;;;10586403;27;20066;-73
2024/01/13 08:56:06;;;;;;;34.20;9.43;;;;;;;;;;10587028;27;20063;-74
2024/01/13 09:01:10;;;;;;;4.43;2.73;;;;;;;;;;10593526;27;20036;-73
2024/01/13 09:06:19;;;;;;;47.87;13.63;;;;;;;;;;10590020;27;20948;-75
2024/01/13 09:11:22;;;;;;;51.40;15.33;;;;;;;;;;10568203;27;20048;-77
2024/01/13 09:16:42;;;;;;;38.27;11.30;;;;;;;;;;10588072;27;20023;-76
2024/01/13 09:21:45;;;;;;;;;;;;;;;;;;10587793;27;20123;-74
2024/01/13 09:26:49;;;;;;;37.03;10.57;;;;;;;;;;10582065;27;19919;-74
2024/01/13 09:31:54;;;;;;;23.70;6.43;;;;;;;;;;10583039;27;20477;-73
2024/01/13 09:36:57;;;;;;;31.70;10.38;;;;;;;;;;10580516;27;20123;-75
2024/01/13 09:42:02;;;;;;;47.10;12.80;;;;;;;;;;10586546;27;20055;-76
2024/01/13 09:47:06;;;;;;;40.87;10.57;;;;;;;;;;10585718;27;20535;-74
2024/01/13 09:52:10;;;;;;;26.90;8.60;;;;;;;;;;10585927;27;20138;-74
2024/01/13 09:57:13;;;;;;;10.80;3.90;;;;;;;;;;10584537;27;20034;-74
2024/01/13 10:02:17;;;;;;;18.37;6.53;;;;;;;;;;10589061;27;20040;-74
2024/01/13 10:07:20;;;;;;;18.63;5.13;;;;;;;;;;10590199;27;20118;-75
2024/01/13 10:12:30;;;;;;;35.10;12.97;;;;;;;;;;10585822;27;20044;-74
2024/01/13 10:17:34;;;;;;;36.57;11.17;;;;;;;;;;10587401;27;20096;-75
2024/01/13 10:22:37;;;;;;;;;;;;;;;;;;10583020;27;20063;-75
2024/01/13 10:27:40;;;;;;;42.33;10.77;;;;;;;;;;10586058;27;19938;-74
2024/01/13 10:32:44;;;;;;;46.20;12.60;;;;;;;;;;10565312;27;20042;-74
2024/01/13 10:37:47;;;;;;;;;;;;;;;;;;10572416;27;20046;-75
2024/01/13 10:42:53;;;;;;;31.87;9.13;;;;;;;;;;10594207;27;19985;-74
2024/01/13 10:48:02;;;;;;;22.40;8.80;;;;;;;;;;10580149;27;20064;-74
2024/01/13 10:53:10;;;;;;;22.17;7.53;;;;;;;;;;10579175;27;20048;-74
2024/01/13 10:58:12;;;;;;;36.70;9.57;;;;;;;;;;10583880;27;20046;-74
2024/01/13 11:03:18;;;;;;;28.77;9.50;;;;;;;;;;10543680;27;1066122;-75
2024/01/13 11:08:21;;;;;;;32.07;10.20;;;;;;;;;;10585214;27;20046;-75
2024/01/13 11:13:25;;;;;;;36.60;11.17;;;;;;;;;;10586492;27;20040;-75
2024/01/13 11:18:34;;;;;;;36.58;11.15;;;;;;;;;;10570121;27;20031;-75
2024/01/13 11:23:40;;;;;;;34.57;12.07;;;;;;;;;;10557825;27;20039;-74
2024/01/13 11:28:49;;;;;;;38.10;12.93;;;;;;;;;;10582737;27;20027;-75
2024/01/13 11:33:53;;;;;;;34.80;10.93;;;;;;;;;;10589625;27;20547;-76
2024/01/13 11:38:57;;;;;;;31.70;9.97;;;;;;;;;;10584534;28;20067;-74
2024/01/13 11:44:00;;;;;;;17.80;4.32;;;;;;;;;;10595183;27;20051;-74
2024/01/13 11:49:04;;;;;;;32.67;10.33;;;;;;;;;;10584572;27;20122;-75
2024/01/13 11:54:06;;;;;;;30.85;11.13;;;;;;;;;;10584222;27;20512;-75
2024/01/13 11:59:09;;;;;;;26.30;10.03;;;;;;;;;;10591410;27;20124;-76
2024/01/13 12:04:14;;;;;;;22.97;8.00;;;;;;;;;;10590812;27;20111;-75
2024/01/13 12:09:20;;;;;;;29.93;8.50;;;;;;;;;;10595376;27;20047;-75
2024/01/13 12:14:26;;;;;;;18.00;5.77;;;;;;;;;;10596979;27;20039;-74
2024/01/13 12:19:32;;;;;;;15.00;5.53;;;;;;;;;;10598376;27;20071;-73
2024/01/13 12:24:35;;;;;;;9.40;4.00;;;;;;;;;;10596195;27;20047;-75
2024/01/13 12:29:38;;;;;;;24.60;7.47;;;;;;;;;;10591007;27;20040;-75
2024/01/13 12:34:42;;;;;;;13.47;5.53;;;;;;;;;;10591392;27;20055;-74
2024/01/13 12:39:45;;;;;;;;;;;;;;;;;;10590380;27;20565;-75
2024/01/13 12:44:48;;;;;;;26.60;7.57;;;;;;;;;;10570941;27;20667;-75
2024/01/13 12:49:56;;;;;;;13.27;5.23;;;;;;;;;;10590960;27;20251;-75
2024/01/13 12:54:59;;;;;;;12.23;4.33;;;;;;;;;;10588480;27;20047;-75
2024/01/13 13:00:18;;;;;;;14.53;4.40;;;;;;;;;;10599752;27;20430;-75
2024/01/13 13:05:22;;;;;;;12.73;3.90;;;;;;;;;;10588768;27;20082;-75
2024/01/13 13:10:25;;;;;;;11.05;4.10;;;;;;;;;;10588237;27;20035;-76
2024/01/13 13:15:28;;;;;;;15.23;6.00;;;;;;;;;;10571966;27;20046;-75
2024/01/13 13:20:33;;;;;;;10.20;3.67;;;;;;;;;;10585409;27;20046;-74
2024/01/13 13:25:36;;;;;;;21.03;6.70;;;;;;;;;;10586936;27;20036;-74
2024/01/13 13:30:44;;;;;;;20.13;6.07;;;;;;;;;;10590033;27;20035;-74
2024/01/13 13:35:49;;;;;;;16.00;5.80;;;;;;;;;;10580103;27;20122;-75
2024/01/13 13:40:53;;;;;;;20.53;5.40;;;;;;;;;;10586414;27;20248;-75
2024/01/13 13:45:56;;;;;;;22.43;6.83;;;;;;;;;;10583554;27;20479;-75
2024/01/13 13:51:00;;;;;;;6.93;1.93;;;;;;;;;;10586938;27;20082;-74
2024/01/13 13:56:03;;;;;;;24.30;7.80;;;;;;;;;;10585082;27;20040;-75
2024/01/13 14:01:06;;;;;;;21.87;6.57;;;;;;;;;;10586904;27;20047;-75
2024/01/13 14:06:11;;;;;;;16.83;6.00;;;;;;;;;;10592975;27;20557;-75
2024/01/13 14:11:15;;;;;;;12.93;3.43;;;;;;;;;;10569146;27;20138;-74
2024/01/13 14:16:20;;;;;;;16.13;3.83;;;;;;;;;;10584613;27;20418;-74
2024/01/13 14:21:24;;;;;;;15.70;4.15;;;;;;;;;;10587721;27;20066;-76
2024/01/13 14:26:27;;;;;;;9.00;4.33;;;;;;;;;;10589644;27;20043;-74
2024/01/13 14:31:30;;;;;;;11.03;5.00;;;;;;;;;;10585386;27;20085;-74
2024/01/13 14:36:36;;;;;;;12.57;4.40;;;;;;;;;;10590022;27;20342;-75
2024/01/13 14:41:39;;;;;;;9.03;3.90;;;;;;;;;;10585461;27;20543;-74
2024/01/13 14:46:42;;;;;;;29.23;8.73;;;;;;;;;;10581581;27;20132;-74
2024/01/13 14:51:46;;;;;;;16.63;4.77;;;;;;;;;;10581045;27;20039;-75
2024/01/13 14:56:49;;;;;;;23.30;5.53;;;;;;;;;;10576744;27;20119;-75
2024/01/13 15:01:52;;;;;;;22.37;6.70;;;;;;;;;;10584205;27;20047;-75
2024/01/13 15:06:56;;;;;;;26.67;7.40;;;;;;;;;;10580558;27;20133;-74
2024/01/13 15:12:00;;;;;;;22.17;6.80;;;;;;;;;;10576522;27;20066;-75
2024/01/13 15:17:03;;;;;;;15.70;6.22;;;;;;;;;;10583252;27;20036;-75
2024/01/13 15:22:07;;;;;;;18.33;5.40;;;;;;;;;;10578087;27;20508;-75
2024/01/13 15:27:10;;;;;;;20.42;6.05;;;;;;;;;;10581530;27;20305;-74
2024/01/13 15:32:13;;;;;;;29.27;6.77;;;;;;;;;;10583220;27;20040;-74
2024/01/13 15:37:17;;;;;;;19.80;6.00;;;;;;;;;;10578932;27;20465;-74
2024/01/13 15:42:19;;;;;;;12.85;4.38;;;;;;;;;;10593889;27;20129;-75
2024/01/13 15:47:22;;;;;;;14.10;5.30;;;;;;;;;;10586862;27;20590;-74
2024/01/13 15:52:26;;;;;;;9.00;2.67;;;;;;;;;;10589948;27;20542;-75
2024/01/13 15:57:31;;;;;;;10.60;3.50;;;;;;;;;;10576286;27;20296;-75
2024/01/13 16:02:35;;;;;;;16.37;5.67;;;;;;;;;;10594103;27;20059;-75
2024/01/13 16:07:40;;;;;;;16.65;5.05;;;;;;;;;;10588871;27;20034;-75
2024/01/13 16:12:43;;;;;;;22.63;6.70;;;;;;;;;;10588998;27;20054;-75
2024/01/13 16:17:46;;;;;;;17.47;4.40;;;;;;;;;;10594027;27;20034;-74
2024/01/13 16:22:51;;;;;;;22.92;6.50;;;;;;;;;;10594762;27;20047;-74
2024/01/13 16:27:55;;;;;;;28.20;8.33;;;;;;;;;;10586709;27;20031;-74
2024/01/13 16:32:58;;;;;;;34.60;8.37;;;;;;;;;;10592693;27;20096;-74
2024/01/13 16:38:03;;;;;;;11.80;3.70;;;;;;;;;;10594915;27;20035;-73
2024/01/13 16:43:05;;;;;;;19.60;6.23;;;;;;;;;;10597805;27;20061;-73
2024/01/13 16:48:08;;;;;;;27.30;7.40;;;;;;;;;;10600843;27;20051;-74
2024/01/13 16:53:12;;;;;;;17.43;4.87;;;;;;;;;;10605120;27;20050;-74
2024/01/13 16:58:15;;;;;;;5.75;2.15;;;;;;;;;;10597607;27;20106;-74
2024/01/13 17:03:17;;;;;;;13.93;4.97;;;;;;;;;;10586695;27;20042;-73
2024/01/13 17:08:22;;;;;;;17.33;5.20;;;;;;;;;;10597099;27;20074;-73
2024/01/13 17:13:24;;;;;;;;;;;;;;;;;;10590998;27;20047;-72
2024/01/13 17:18:27;;;;;;;15.33;5.03;;;;;;;;;;10582568;27;19972;-74
2024/01/13 17:23:31;;;;;;;15.20;4.43;;;;;;;;;;10586603;27;20192;-74
2024/01/13 17:28:34;;;;;;;18.75;5.18;;;;;;;;;;10591853;27;20482;-76
2024/01/13 17:33:37;;;;;;;35.70;9.53;;;;;;;;;;10597555;27;20047;-75
2024/01/13 17:38:41;;;;;;;26.93;7.63;;;;;;;;;;10601056;27;20464;-75
2024/01/13 17:43:44;;;;;;;12.77;4.57;;;;;;;;;;10602742;27;20047;-73
2024/01/13 17:48:48;;;;;;;29.17;9.07;;;;;;;;;;10604523;27;20031;-77
2024/01/13 17:53:52;;;;;;;21.83;5.30;;;;;;;;;;10601305;27;20118;-75
2024/01/13 17:58:55;;;;;;;25.10;7.93;;;;;;;;;;10581106;27;20040;-75
2024/01/13 18:03:58;;;;;;;29.93;8.90;;;;;;;;;;10601534;27;20185;-76
2024/01/13 18:09:02;;;;;;;36.53;10.13;;;;;;;;;;10599192;27;20035;-73
2024/01/13 18:14:05;;;;;;;38.30;8.97;;;;;;;;;;10599914;27;20526;-76
2024/01/13 18:19:08;;;;;;;40.07;8.67;;;;;;;;;;10598124;27;20368;-74
2024/01/13 18:24:13;;;;;;;12.27;5.05;;;;;;;;;;10599740;27;20065;-74
2024/01/13 18:29:16;;;;;;;26.30;8.07;;;;;;;;;;10602057;27;20128;-74
2024/01/13 18:34:20;;;;;;;24.17;6.90;;;;;;;;;;10590719;27;20046;-74
2024/01/13 18:39:24;;;;;;;30.83;9.33;;;;;;;;;;10583851;27;20051;-73
2024/01/13 18:44:28;;;;;;;24.65;6.47;;;;;;;;;;10591759;27;20185;-74
2024/01/13 18:49:31;;;;;;;33.15;9.25;;;;;;;;;;10582697;27;20041;-75
2024/01/13 18:54:35;;;;;;;33.60;9.27;;;;;;;;;;10582221;27;20172;-74
2024/01/13 18:59:39;;;;;;;25.93;8.47;;;;;;;;;;10585615;27;20042;-74
2024/01/13 19:04:43;;;;;;;15.67;5.73;;;;;;;;;;10582770;27;20441;-73
2024/01/13 19:09:46;;;;;;;;;;;;;;;;;;10588558;27;20039;-73
2024/01/13 19:14:50;;;;;;;30.70;8.60;;;;;;;;;;10583256;27;19998;-75
2024/01/13 19:19:53;;;;;;;40.88;10.70;;;;;;;;;;10592662;27;20472;-73
2024/01/13 19:24:56;;;;;;;35.40;9.23;;;;;;;;;;10592234;27;20503;-75
2024/01/13 19:30:00;;;;;;;17.57;6.23;;;;;;;;;;10592504;27;20034;-73
2024/01/13 19:35:04;;;;;;;19.07;7.50;;;;;;;;;;10594647;27;20132;-76
2024/01/13 19:40:07;;;;;;;22.13;7.47;;;;;;;;;;10590359;27;20047;-73
2024/01/13 19:45:11;;;;;;;28.05;7.65;;;;;;;;;;10596331;27;20349;-73
2024/01/13 19:50:15;;;;;;;20.43;6.60;;;;;;;;;;10592123;27;20476;-74
2024/01/13 19:55:17;;;;;;;23.57;6.20;;;;;;;;;;10588754;27;20066;-74
2024/01/13 20:00:21;;;;;;;30.07;8.13;;;;;;;;;;10598662;27;20039;-74
2024/01/13 20:05:24;;;;;;;;;;;;;;;;;;10589972;27;20039;-74
2024/01/13 20:10:27;;;;;;;19.60;6.43;;;;;;;;;;10578957;27;19919;-73
2024/01/13 20:15:31;;;;;;;29.07;8.20;;;;;;;;;;10594546;27;20141;-74
2024/01/13 20:20:35;;;;;;;27.70;7.30;;;;;;;;;;10597076;27;20377;-72
2024/01/13 20:25:38;;;;;;;27.33;8.20;;;;;;;;;;10586763;27;20058;-75
2024/01/13 20:30:42;;;;;;;31.43;9.07;;;;;;;;;;10590581;27;20145;-73
2024/01/13 20:35:45;;;;;;;31.10;8.67;;;;;;;;;;10599983;27;20493;-75
2024/01/13 20:40:48;;;;;;;26.20;6.87;;;;;;;;;;10600879;27;20141;-75
2024/01/13 20:45:52;;;;;;;30.00;8.77;;;;;;;;;;10600644;27;20037;-74
2024/01/13 20:50:56;;;;;;;;;;;;;;;;;;10606631;27;20059;-74
2024/01/13 20:55:59;;;;;;;30.00;8.27;;;;;;;;;;10599895;27;19920;-74
2024/01/13 21:01:07;;;;;;;31.37;8.27;;;;;;;;;;10602613;27;20067;-74
2024/01/13 21:06:13;;;;;;;25.67;7.43;;;;;;;;;;10606047;27;20613;-75
2024/01/13 21:11:16;;;;;;;35.53;9.23;;;;;;;;;;10584044;27;20164;-74
2024/01/13 21:16:20;;;;;;;16.13;6.00;;;;;;;;;;10599201;27;20044;-74
2024/01/13 21:21:23;;;;;;;42.70;11.38;;;;;;;;;;10607927;27;20118;-73
2024/01/13 21:26:26;;;;;;;35.37;9.30;;;;;;;;;;10602586;27;20096;-74
2024/01/13 21:31:32;;;;;;;40.63;9.90;;;;;;;;;;10602037;27;20035;-75
2024/01/13 21:36:36;;;;;;;37.17;10.40;;;;;;;;;;10601880;27;20044;-74
2024/01/13 21:41:40;;;;;;;33.25;9.48;;;;;;;;;;10603399;27;20126;-74
2024/01/13 21:46:43;;;;;;;;;;;;;;;;;;10595898;27;20067;-73
2024/01/13 21:51:47;;;;;;;37.00;10.20;;;;;;;;;;10600192;27;20038;-73
2024/01/13 21:56:49;;;;;;;29.80;8.18;;;;;;;;;;10596718;27;20035;-73
2024/01/13 22:01:54;;;;;;;36.70;8.47;;;;;;;;;;10596534;27;20066;-74
2024/01/13 22:06:59;;;;;;;37.70;11.43;;;;;;;;;;10597605;27;20139;-75
2024/01/13 22:12:05;;;;;;;31.90;9.50;;;;;;;;;;10601264;27;20061;-74
2024/01/13 22:17:08;;;;;;;30.73;7.97;;;;;;;;;;10604015;27;20130;-73
2024/01/13 22:22:12;;;;;;;39.90;10.70;;;;;;;;;;10598683;27;20035;-73
2024/01/13 22:27:15;;;;;;;22.83;8.30;;;;;;;;;;10582239;27;20122;-75
2024/01/13 22:32:19;;;;;;;31.07;8.87;;;;;;;;;;10578982;27;20028;-74
2024/01/13 22:37:23;;;;;;;34.65;10.00;;;;;;;;;;10572371;27;20167;-75
2024/01/13 22:42:26;;;;;;;;;;;;;;;;;;10576020;27;20130;-74
2024/01/13 22:47:29;;;;;;;25.50;7.73;;;;;;;;;;10575366;27;19935;-74
2024/01/13 22:52:34;;;;;;;25.17;7.43;;;;;;;;;;10573748;27;20080;-73
2024/01/13 22:57:37;;;;;;;21.60;7.30;;;;;;;;;;10578227;27;20051;-74
2024/01/13 23:02:40;;;;;;;30.88;8.15;;;;;;;;;;10573422;27;20573;-74
2024/01/13 23:07:44;;;;;;;30.53;9.67;;;;;;;;;;10573639;27;20063;-74
2024/01/13 23:12:49;;;;;;;21.55;7.95;;;;;;;;;;10574331;27;21383;-74
2024/01/13 23:17:54;;;;;;;15.27;6.57;;;;;;;;;;10564226;27;20164;-73
2024/01/13 23:22:58;;;;;;;17.43;5.30;;;;;;;;;;10573299;27;20047;-74
2024/01/13 23:28:01;;;;;;;23.83;7.35;;;;;;;;;;10570227;27;20073;-74
2024/01/13 23:33:05;;;;;;;17.13;4.80;;;;;;;;;;10579406;27;20048;-75
2024/01/13 23:38:09;;;;;;;29.80;8.55;;;;;;;;;;10575873;27;20050;-75
2024/01/13 23:43:12;;;;;;;25.35;7.35;;;;;;;;;;10556610;27;20528;-74
2024/01/13 23:48:15;;;;;;;31.40;7.87;;;;;;;;;;10571589;27;20039;-74
2024/01/13 23:53:19;;;;;;;23.40;7.70;;;;;;;;;;10578696;27;20051;-75
2024/01/13 23:58:22;;;;;;;29.80;9.23;;;;;;;;;;10574318;27;20042;-75
